createdAt,value
2022-08-16T00:01:11.784Z,17.54
2022-08-16T00:03:40.965Z,17.58
2022-08-16T00:06:08.087Z,17.71
2022-08-16T00:08:37.650Z,17.94
2022-08-16T00:11:15.821Z,17.93
2022-08-16T00:13:53.686Z,17.87
2022-08-16T00:17:05.366Z,18.09
2022-08-16T00:19:09.720Z,18.23
2022-08-16T00:21:40.593Z,18.35
2022-08-16T00:24:12.127Z,18.40
2022-08-16T00:26:44.392Z,18.43
2022-08-16T00:29:15.981Z,18.59
2022-08-16T00:32:01.470Z,18.56
2022-08-16T00:34:44.430Z,18.48
2022-08-16T00:37:20.978Z,18.41
2022-08-16T00:39:58.210Z,18.31
2022-08-16T00:42:30.571Z,18.19
2022-08-16T00:45:09.299Z,18.03
2022-08-16T00:47:49.015Z,18.11
2022-08-16T00:50:20.155Z,17.80
2022-08-16T00:52:51.135Z,17.78
2022-08-16T00:55:20.689Z,17.81
2022-08-16T00:57:59.854Z,17.83
2022-08-16T01:00:29.564Z,17.81
2022-08-16T01:02:59.558Z,17.70
2022-08-16T01:05:26.376Z,17.63
2022-08-16T01:07:53.912Z,17.61
2022-08-16T01:10:31.399Z,17.42
2022-08-16T01:13:26.652Z,17.51
2022-08-16T01:16:00.968Z,17.23
2022-08-16T01:18:53.085Z,17.33
2022-08-16T01:21:33.766Z,17.45
2022-08-16T01:24:53.175Z,17.41
2022-08-16T01:27:21.719Z,17.18
2022-08-16T01:29:59.975Z,16.90
2022-08-16T01:32:34.201Z,16.90
2022-08-16T01:35:02.558Z,16.99
2022-08-16T01:37:35.672Z,17.00
2022-08-16T01:40:07.059Z,17.05
2022-08-16T01:42:34.358Z,16.92
2022-08-16T01:45:01.619Z,17.01
2022-08-16T01:47:29.442Z,16.97
2022-08-16T01:50:42.343Z,16.79
2022-08-16T01:52:46.776Z,16.59
2022-08-16T01:55:13.503Z,16.41
2022-08-16T01:57:41.191Z,16.50
2022-08-16T02:00:20.938Z,16.56
2022-08-16T02:02:56.374Z,16.56
2022-08-16T02:05:23.590Z,16.46
2022-08-16T02:07:51.841Z,16.37
2022-08-16T02:10:19.621Z,16.23
2022-08-16T02:12:51.297Z,16.17
2022-08-16T02:15:26.085Z,16.05
2022-08-16T02:17:58.334Z,15.95
2022-08-16T02:20:28.214Z,15.89
2022-08-16T02:22:58.605Z,15.80
2022-08-16T02:25:50.811Z,15.72
2022-08-16T02:28:17.139Z,15.61
2022-08-16T02:30:48.757Z,15.49
2022-08-16T02:33:17.678Z,15.45
2022-08-16T02:35:53.749Z,15.43
2022-08-16T02:38:22.418Z,15.31
2022-08-16T02:40:48.953Z,15.24
2022-08-16T02:43:16.104Z,15.21
2022-08-16T02:45:42.701Z,15.09
2022-08-16T02:48:29.946Z,15.04
2022-08-16T02:51:06.127Z,15.00
2022-08-16T02:53:36.999Z,14.98
2022-08-16T02:56:05.544Z,14.93
2022-08-16T02:58:37.015Z,14.90
2022-08-16T03:01:03.712Z,14.78
2022-08-16T03:04:29.170Z,14.75
2022-08-16T03:06:42.241Z,14.68
2022-08-16T03:09:10.706Z,14.60
2022-08-16T03:11:40.337Z,14.57
2022-08-16T03:14:07.445Z,14.56
2022-08-16T03:16:39.074Z,14.48
2022-08-16T03:19:09.164Z,14.36
2022-08-16T03:21:38.308Z,14.25
2022-08-16T03:24:27.687Z,14.25
2022-08-16T03:26:57.971Z,14.31
2022-08-16T03:29:30.049Z,14.30
2022-08-16T03:31:59.172Z,14.32
2022-08-16T03:34:26.611Z,14.32
2022-08-16T03:36:53.758Z,14.34
2022-08-16T03:39:20.671Z,14.22
2022-08-16T03:41:50.380Z,14.18
2022-08-16T03:44:44.545Z,14.14
2022-08-16T03:47:05.082Z,14.12
2022-08-16T03:49:37.352Z,14.11
2022-08-16T03:52:04.638Z,14.01
2022-08-16T03:54:31.216Z,13.94
2022-08-16T03:56:59.004Z,13.91
2022-08-16T03:59:25.678Z,13.86
2022-08-16T04:01:56.092Z,13.86
2022-08-16T04:04:32.493Z,13.88
2022-08-16T04:07:00.483Z,13.93
2022-08-16T04:09:35.539Z,13.90
2022-08-16T04:12:10.557Z,13.88
2022-08-16T04:14:46.408Z,13.82
2022-08-16T04:17:15.431Z,13.73
2022-08-16T04:19:45.558Z,13.73
2022-08-16T04:22:12.767Z,13.61
2022-08-16T04:24:39.248Z,13.57
2022-08-16T04:27:10.008Z,13.57
2022-08-16T04:29:43.333Z,13.65
2022-08-16T04:32:13.879Z,13.61
2022-08-16T04:34:40.729Z,13.62
2022-08-16T04:37:07.809Z,13.66
2022-08-16T04:39:46.915Z,13.69
2022-08-16T04:42:26.019Z,13.86
2022-08-16T04:44:55.493Z,13.90
2022-08-16T04:47:31.629Z,13.75
2022-08-16T04:50:00.773Z,13.85
2022-08-16T04:52:33.622Z,14.00
2022-08-16T04:55:07.402Z,13.85
2022-08-16T04:57:34.941Z,13.99
2022-08-16T05:00:32.765Z,13.98
2022-08-16T05:02:56.083Z,13.68
2022-08-16T05:05:25.163Z,13.93
2022-08-16T05:08:00.057Z,14.11
2022-08-16T05:10:28.340Z,14.28
2022-08-16T05:12:56.813Z,14.40
2022-08-16T05:15:23.391Z,14.49
2022-08-16T05:17:58.580Z,14.63
2022-08-16T05:20:39.248Z,14.78
2022-08-16T05:23:13.768Z,14.97
2022-08-16T05:25:48.724Z,15.02
2022-08-16T05:28:16.568Z,15.18
2022-08-16T05:30:43.342Z,15.58
2022-08-16T05:33:16.753Z,16.27
2022-08-16T05:35:54.955Z,17.21
2022-08-16T05:38:32.305Z,18.82
2022-08-16T05:41:02.825Z,20.65
2022-08-16T05:43:32.179Z,22.13
2022-08-16T05:46:29.442Z,23.41
2022-08-16T05:49:03.609Z,24.22
2022-08-16T05:51:38.332Z,24.66
2022-08-16T05:54:06.420Z,25.54
2022-08-16T05:56:34.268Z,26.25
2022-08-16T05:59:06.075Z,25.98
2022-08-16T06:01:37.923Z,26.56
2022-08-16T06:04:13.333Z,27.59
2022-08-16T06:06:56.961Z,27.79
2022-08-16T06:09:25.835Z,28.01
2022-08-16T06:12:26.770Z,28.72
2022-08-16T06:14:59.640Z,28.87
2022-08-16T06:17:41.416Z,28.85
2022-08-16T06:20:24.200Z,29.30
2022-08-16T06:23:02.868Z,29.69
2022-08-16T06:25:36.200Z,30.06
2022-08-16T06:28:08.722Z,30.48
2022-08-16T06:30:43.513Z,30.52
2022-08-16T06:33:22.214Z,30.53
2022-08-16T06:35:54.680Z,30.87
2022-08-16T06:38:32.183Z,31.07
2022-08-16T06:41:03.724Z,31.37
2022-08-16T06:43:30.830Z,31.74
2022-08-16T06:45:58.886Z,32.02
2022-08-16T06:48:32.963Z,32.37
2022-08-16T06:51:04.638Z,32.69
2022-08-16T06:53:35.420Z,32.99
2022-08-16T06:56:05.853Z,32.89
2022-08-16T06:58:33.591Z,32.82
2022-08-16T07:01:03.949Z,33.16
2022-08-16T07:03:55.901Z,33.17
2022-08-16T07:06:26.663Z,33.21
2022-08-16T07:08:54.646Z,33.09
2022-08-16T07:11:47.359Z,32.81
2022-08-16T07:14:26.355Z,32.99
2022-08-16T07:16:57.897Z,31.98
2022-08-16T07:20:03.812Z,32.93
2022-08-16T07:22:37.965Z,33.20
2022-08-16T07:25:00.113Z,33.53
2022-08-16T07:27:27.174Z,33.07
2022-08-16T07:29:56.351Z,32.27
2022-08-16T07:32:29.664Z,30.97
2022-08-16T07:34:58.321Z,31.06
2022-08-16T07:37:24.939Z,29.43
2022-08-16T07:39:52.530Z,28.31
2022-08-16T07:42:26.050Z,28.36
2022-08-16T07:45:02.095Z,27.56
2022-08-16T07:47:32.015Z,28.04
2022-08-16T07:50:00.172Z,26.60
2022-08-16T07:52:32.439Z,26.54
2022-08-16T07:54:59.826Z,25.64
2022-08-16T07:57:26.859Z,25.50
2022-08-16T07:59:53.422Z,25.29
2022-08-16T08:02:23.906Z,26.44
2022-08-16T08:04:55.722Z,27.63
2022-08-16T08:07:22.995Z,27.06
2022-08-16T08:09:54.150Z,27.43
2022-08-16T08:12:31.516Z,27.48
2022-08-16T08:15:02.027Z,28.36
2022-08-16T08:17:42.854Z,27.96
2022-08-16T08:20:20.815Z,25.53
2022-08-16T08:22:54.222Z,24.22
2022-08-16T08:25:54.403Z,25.35
2022-08-16T08:28:16.177Z,27.01
2022-08-16T08:31:00.504Z,28.38
2022-08-16T08:33:31.432Z,28.31
2022-08-16T08:36:00.802Z,27.93
2022-08-16T08:38:45.045Z,26.55
2022-08-16T08:41:15.388Z,25.81
2022-08-16T08:43:47.190Z,25.54
2022-08-16T08:46:21.103Z,25.89
2022-08-16T08:48:59.720Z,27.59
2022-08-16T08:51:35.830Z,27.65
2022-08-16T08:54:09.125Z,27.89
2022-08-16T08:56:37.672Z,29.43
2022-08-16T08:59:13.606Z,27.17
2022-08-16T09:01:56.672Z,27.70
2022-08-16T09:04:28.610Z,29.51
2022-08-16T09:06:56.527Z,30.55
2022-08-16T09:09:25.402Z,31.20
2022-08-16T09:12:06.318Z,31.68
2022-08-16T09:14:35.266Z,31.65
2022-08-16T09:17:11.905Z,31.87
2022-08-16T09:19:50.302Z,31.88
2022-08-16T09:22:21.461Z,31.09
2022-08-16T09:24:52.456Z,31.51
2022-08-16T09:27:23.367Z,31.26
2022-08-16T09:30:00.008Z,30.34
2022-08-16T09:32:28.948Z,30.73
2022-08-16T09:34:58.445Z,30.89
2022-08-16T09:37:29.708Z,30.44
2022-08-16T09:39:59.659Z,29.76
2022-08-16T09:42:28.436Z,28.44
2022-08-16T09:45:11.420Z,31.04
2022-08-16T09:47:56.616Z,29.97
2022-08-16T09:50:33.273Z,29.78
2022-08-16T09:53:15.207Z,29.23
2022-08-16T09:55:49.640Z,28.67
2022-08-16T09:58:41.893Z,31.08
2022-08-16T10:01:11.525Z,29.93
2022-08-16T10:03:38.511Z,29.54
2022-08-16T10:06:25.899Z,27.68
2022-08-16T10:09:05.247Z,27.58
2022-08-16T10:11:52.503Z,26.81
2022-08-16T10:14:19.714Z,25.98
2022-08-16T10:16:48.922Z,26.35
2022-08-16T10:19:19.382Z,26.92
2022-08-16T10:21:46.589Z,28.18
2022-08-16T10:24:28.319Z,29.87
2022-08-16T10:27:18.900Z,32.25
2022-08-16T10:29:59.954Z,33.97
2022-08-16T10:32:30.583Z,35.40
2022-08-16T10:34:59.213Z,36.17
2022-08-16T10:37:32.834Z,36.69
2022-08-16T10:40:06.428Z,31.08
2022-08-16T10:42:52.901Z,31.74
2022-08-16T10:45:19.839Z,32.96
2022-08-16T10:47:47.157Z,33.71
2022-08-16T10:50:23.003Z,32.57
2022-08-16T10:52:50.638Z,34.18
2022-08-16T10:55:45.073Z,34.33
2022-08-16T10:58:17.152Z,32.59
2022-08-16T11:00:46.040Z,33.33
2022-08-16T11:06:00.809Z,30.20
2022-08-16T11:08:35.412Z,31.64
2022-08-16T11:11:14.150Z,31.55
2022-08-16T11:14:06.173Z,30.77
2022-08-16T11:19:20.125Z,32.96
2022-08-16T11:24:42.352Z,34.98
2022-08-16T11:27:23.067Z,33.66
2022-08-16T11:29:53.391Z,34.29
2022-08-16T11:32:31.012Z,32.67
2022-08-16T11:35:13.255Z,31.87
2022-08-16T11:38:46.759Z,30.97
2022-08-16T11:40:52.617Z,30.70
2022-08-16T11:43:23.361Z,30.25
2022-08-16T11:45:53.751Z,30.85
2022-08-16T11:48:22.296Z,32.29
2022-08-16T11:50:49.273Z,32.84
2022-08-16T11:53:17.311Z,31.52
2022-08-16T11:55:44.537Z,31.49
2022-08-16T11:58:11.523Z,32.89
2022-08-16T12:00:51.137Z,31.50
2022-08-16T12:03:19.178Z,31.85
2022-08-16T12:05:46.848Z,32.23
2022-08-16T12:08:18.904Z,31.01
2022-08-16T12:10:46.841Z,31.79
2022-08-16T12:13:14.827Z,31.07
2022-08-16T12:15:41.736Z,29.77
2022-08-16T12:18:08.971Z,30.39
2022-08-16T12:20:38.777Z,30.87
2022-08-16T12:23:06.639Z,30.80
2022-08-16T12:25:36.105Z,28.97
2022-08-16T12:28:06.051Z,28.49
2022-08-16T12:30:38.572Z,29.40
2022-08-16T12:33:07.750Z,30.62
2022-08-16T12:35:35.941Z,31.72
2022-08-16T12:38:38.152Z,32.31
2022-08-16T12:40:50.855Z,31.36
2022-08-16T12:43:23.483Z,30.64
2022-08-16T12:45:53.276Z,30.89
2022-08-16T12:48:42.399Z,31.53
2022-08-16T12:51:19.577Z,31.70
2022-08-16T12:53:47.974Z,32.40
2022-08-16T12:56:16.704Z,34.00
2022-08-16T12:58:51.846Z,35.27
2022-08-16T13:01:26.763Z,36.76
2022-08-16T13:04:20.317Z,36.17
2022-08-16T13:06:45.350Z,35.56
2022-08-16T13:09:23.653Z,34.76
2022-08-16T13:12:01.668Z,33.34
2022-08-16T13:14:40.134Z,35.28
2022-08-16T13:17:15.516Z,34.26
2022-08-16T13:20:06.601Z,34.22
2022-08-16T13:22:31.621Z,34.95
2022-08-16T13:24:59.572Z,34.36
2022-08-16T13:28:03.019Z,36.19
2022-08-16T13:30:36.300Z,36.39
2022-08-16T13:33:00.433Z,37.11
2022-08-16T13:35:27.729Z,35.06
2022-08-16T13:38:01.251Z,33.84
2022-08-16T13:40:27.810Z,34.18
2022-08-16T13:42:54.305Z,35.90
2022-08-16T13:45:20.882Z,36.73
2022-08-16T13:47:48.529Z,37.95
2022-08-16T13:50:31.443Z,38.24
2022-08-16T13:53:06.471Z,37.12
2022-08-16T13:55:33.189Z,35.05
2022-08-16T13:58:35.472Z,36.66
2022-08-16T14:00:46.351Z,37.95
2022-08-16T14:03:21.549Z,38.75
2022-08-16T14:05:52.417Z,38.62
2022-08-16T14:08:20.973Z,39.76
2022-08-16T14:10:51.801Z,38.73
2022-08-16T14:13:21.056Z,35.20
2022-08-16T14:15:48.691Z,34.37
2022-08-16T14:18:20.245Z,35.61
2022-08-16T14:20:48.501Z,34.41
2022-08-16T14:23:23.651Z,36.85
2022-08-16T14:25:53.878Z,39.01
2022-08-16T14:28:23.479Z,39.67
2022-08-16T14:30:50.328Z,38.78
2022-08-16T14:33:18.496Z,36.22
2022-08-16T14:35:49.078Z,35.93
2022-08-16T14:38:23.949Z,37.51
2022-08-16T14:40:55.490Z,36.52
2022-08-16T14:43:23.578Z,37.16
2022-08-16T14:45:50.357Z,39.60
2022-08-16T14:48:25.108Z,40.34
2022-08-16T14:50:53.607Z,39.05
2022-08-16T14:53:20.127Z,38.40
2022-08-16T14:55:47.045Z,37.40
2022-08-16T14:58:19.440Z,36.98
2022-08-16T15:00:50.409Z,38.06
2022-08-16T15:03:19.232Z,38.64
2022-08-16T15:05:48.319Z,39.66
2022-08-16T15:08:17.102Z,39.67
2022-08-16T15:10:46.947Z,39.78
2022-08-16T15:13:13.930Z,40.21
2022-08-16T15:15:43.342Z,40.38
2022-08-16T15:18:12.167Z,40.71
2022-08-16T15:20:39.472Z,40.89
2022-08-16T15:23:08.933Z,40.70
2022-08-16T15:25:47.233Z,41.66
2022-08-16T15:28:31.482Z,41.79
2022-08-16T15:31:03.633Z,39.59
2022-08-16T15:33:32.955Z,38.32
2022-08-16T15:36:00.136Z,37.96
2022-08-16T15:38:54.669Z,37.72
2022-08-16T15:41:42.473Z,35.10
2022-08-16T15:44:23.078Z,38.12
2022-08-16T15:46:54.989Z,37.59
2022-08-16T15:49:34.423Z,36.72
2022-08-16T15:52:01.682Z,35.09
2022-08-16T15:54:32.587Z,35.14
2022-08-16T15:57:11.413Z,34.43
2022-08-16T15:59:48.684Z,33.91
2022-08-16T16:02:29.462Z,32.92
2022-08-16T16:05:06.620Z,32.16
2022-08-16T16:07:33.998Z,31.27
2022-08-16T16:10:04.790Z,30.80
2022-08-16T16:12:53.096Z,30.58
2022-08-16T16:15:20.133Z,30.01
2022-08-16T16:17:50.727Z,29.50
2022-08-16T16:20:18.460Z,29.22
2022-08-16T16:22:46.465Z,29.48
2022-08-16T16:25:15.839Z,29.39
2022-08-16T16:27:43.815Z,28.90
2022-08-16T16:30:33.452Z,28.84
2022-08-16T16:32:59.448Z,28.44
2022-08-16T16:35:32.577Z,28.42
2022-08-16T16:37:59.599Z,28.64
2022-08-16T16:40:28.846Z,29.01
2022-08-16T16:42:59.971Z,29.15
2022-08-16T16:45:34.816Z,29.22
2022-08-16T16:48:12.368Z,29.08
2022-08-16T16:50:45.296Z,28.60
2022-08-16T16:53:17.250Z,28.45
2022-08-16T16:55:51.554Z,28.05
2022-08-16T16:58:43.506Z,28.03
2022-08-16T17:01:20.750Z,27.61
2022-08-16T17:04:19.301Z,27.73
2022-08-16T17:06:53.715Z,27.71
2022-08-16T17:09:23.978Z,27.58
2022-08-16T17:11:55.474Z,27.45
2022-08-16T17:14:32.761Z,27.49
2022-08-16T17:17:00.880Z,27.36
2022-08-16T17:19:31.677Z,27.34
2022-08-16T17:21:59.328Z,27.11
2022-08-16T17:24:31.380Z,26.94
2022-08-16T17:27:07.752Z,26.96
2022-08-16T17:29:34.849Z,26.90
2022-08-16T17:32:47.369Z,26.86
2022-08-16T17:35:11.531Z,26.83
2022-08-16T17:37:48.790Z,26.66
2022-08-16T17:40:47.958Z,26.58
2022-08-16T17:43:18.587Z,26.48
2022-08-16T17:45:46.026Z,26.60
2022-08-16T17:48:13.492Z,26.45
2022-08-16T17:50:40.852Z,26.38
2022-08-16T17:53:08.065Z,26.31
2022-08-16T17:55:38.081Z,26.15
2022-08-16T17:58:21.260Z,26.04
2022-08-16T18:00:52.133Z,26.05
2022-08-16T18:04:02.538Z,25.99
2022-08-16T18:06:12.573Z,25.85
2022-08-16T18:08:40.604Z,25.79
2022-08-16T18:11:10.277Z,25.66
2022-08-16T18:13:43.381Z,25.42
2022-08-16T18:16:11.159Z,25.27
2022-08-16T18:18:37.751Z,25.12
2022-08-16T18:21:22.845Z,24.98
2022-08-16T18:23:49.462Z,24.79
2022-08-16T18:26:16.019Z,24.67
2022-08-16T18:28:42.637Z,24.52
2022-08-16T18:31:09.356Z,24.36
2022-08-16T18:33:43.646Z,24.12
2022-08-16T18:36:20.549Z,24.00
2022-08-16T18:38:49.324Z,23.80
2022-08-16T18:41:16.490Z,23.68
2022-08-16T18:43:54.253Z,23.56
2022-08-16T18:46:29.453Z,23.32
2022-08-16T18:48:56.027Z,23.04
2022-08-16T18:51:25.577Z,22.78
2022-08-16T18:53:54.738Z,22.64
2022-08-16T18:56:21.173Z,22.51
2022-08-16T18:58:49.020Z,22.41
2022-08-16T19:01:15.719Z,22.26
2022-08-16T19:03:42.358Z,22.20
2022-08-16T19:06:14.212Z,22.15
2022-08-16T19:08:43.439Z,22.06
2022-08-16T19:11:20.024Z,21.95
2022-08-16T19:13:46.731Z,21.75
2022-08-16T19:16:14.308Z,21.48
2022-08-16T19:18:41.222Z,21.37
2022-08-16T19:21:09.467Z,21.21
2022-08-16T19:23:37.274Z,21.05
2022-08-16T19:26:24.601Z,20.96
2022-08-16T19:28:58.476Z,20.83
2022-08-16T19:31:32.671Z,20.75
2022-08-16T19:33:59.898Z,20.57
2022-08-16T19:36:35.232Z,20.44
2022-08-16T19:39:08.613Z,20.32
2022-08-16T19:41:37.580Z,20.26
2022-08-16T19:44:05.610Z,20.09
2022-08-16T19:46:32.993Z,20.03
2022-08-16T19:48:59.589Z,19.90
2022-08-16T19:51:26.104Z,19.82
2022-08-16T19:53:52.619Z,19.67
2022-08-16T19:56:22.300Z,19.62
2022-08-16T19:59:16.342Z,19.58
2022-08-16T20:01:41.665Z,19.47
2022-08-16T20:04:11.841Z,19.40
2022-08-16T20:06:38.994Z,19.39
2022-08-16T20:09:06.430Z,19.31
2022-08-16T20:11:34.726Z,19.24
2022-08-16T20:14:01.925Z,19.12
2022-08-16T20:16:28.600Z,19.02
2022-08-16T20:18:55.107Z,18.65
2022-08-16T20:21:21.592Z,18.64
2022-08-16T20:23:48.100Z,18.63
2022-08-16T20:26:14.787Z,18.56
2022-08-16T20:28:54.185Z,18.51
2022-08-16T20:31:25.566Z,18.46
2022-08-16T20:33:53.140Z,18.41
2022-08-16T20:36:19.970Z,18.36
2022-08-16T20:38:47.641Z,18.32
2022-08-16T20:41:16.372Z,18.27
2022-08-16T20:43:43.336Z,18.16
2022-08-16T20:46:10.049Z,18.00
2022-08-16T20:48:38.961Z,17.93
2022-08-16T20:51:06.768Z,17.87
2022-08-16T20:53:33.933Z,17.85
2022-08-16T20:56:00.450Z,17.83
2022-08-16T20:58:26.892Z,17.80
2022-08-16T21:00:53.509Z,17.75
2022-08-16T21:03:20.084Z,17.65
2022-08-16T21:05:46.788Z,17.62
2022-08-16T21:08:27.946Z,17.55
2022-08-16T21:11:05.074Z,17.45
2022-08-16T21:13:33.508Z,17.33
2022-08-16T21:16:02.205Z,17.31
2022-08-16T21:18:28.979Z,17.11
2022-08-16T21:20:56.139Z,17.09
2022-08-16T21:23:22.804Z,17.09
2022-08-16T21:25:58.437Z,17.08
2022-08-16T21:28:40.361Z,17.18
2022-08-16T21:31:16.911Z,17.21
2022-08-16T21:33:55.053Z,17.14
2022-08-16T21:36:35.854Z,17.03
2022-08-16T21:39:06.785Z,16.92
2022-08-16T21:41:35.399Z,16.86
2022-08-16T21:44:02.004Z,16.83
2022-08-16T21:46:28.573Z,16.79
2022-08-16T21:48:55.191Z,16.72
2022-08-16T21:51:22.355Z,16.71
2022-08-16T21:53:48.827Z,16.61
2022-08-16T21:56:17.122Z,16.52
2022-08-16T21:58:52.740Z,16.44
2022-08-16T22:01:22.702Z,16.37
2022-08-16T22:04:01.488Z,16.35
2022-08-16T22:06:37.584Z,16.29
2022-08-16T22:09:05.276Z,16.26
2022-08-16T22:11:31.883Z,16.28
2022-08-16T22:13:59.438Z,16.24
2022-08-16T22:16:29.817Z,16.12
2022-08-16T22:18:58.559Z,16.03
2022-08-16T22:21:25.863Z,15.98
2022-08-16T22:23:56.961Z,15.92
2022-08-16T22:26:30.925Z,15.86
2022-08-16T22:29:04.469Z,15.80
2022-08-16T22:31:32.225Z,15.76
2022-08-16T22:34:01.829Z,15.73
2022-08-16T22:36:29.656Z,15.72
2022-08-16T22:39:01.870Z,15.69
2022-08-16T22:41:31.779Z,15.65
2022-08-16T22:43:59.134Z,15.60
2022-08-16T22:46:25.637Z,15.59
2022-08-16T22:48:52.153Z,15.57
2022-08-16T22:51:21.412Z,15.55
2022-08-16T22:53:48.212Z,15.46
2022-08-16T22:56:15.592Z,15.39
2022-08-16T22:58:42.292Z,15.36
2022-08-16T23:01:10.066Z,15.31
2022-08-16T23:03:37.762Z,15.28
2022-08-16T23:06:05.596Z,15.24
2022-08-16T23:08:39.624Z,15.14
2022-08-16T23:11:13.505Z,15.12
2022-08-16T23:13:53.241Z,15.14
2022-08-16T23:16:33.810Z,15.19
2022-08-16T23:19:10.268Z,15.12
2022-08-16T23:21:39.789Z,15.08
2022-08-16T23:24:08.042Z,14.95
2022-08-16T23:26:47.203Z,14.91
2022-08-16T23:29:23.665Z,14.91
2022-08-16T23:31:53.607Z,14.94
2022-08-16T23:34:21.680Z,14.92
2022-08-16T23:36:48.078Z,14.90
2022-08-16T23:39:14.496Z,14.81
2022-08-16T23:41:41.014Z,14.73
2022-08-16T23:44:55.282Z,14.78
2022-08-16T23:46:54.011Z,14.76
2022-08-16T23:49:59.216Z,14.74
2022-08-16T23:52:10.630Z,14.67
2022-08-16T23:54:37.072Z,14.68
2022-08-16T23:57:03.766Z,14.73
2022-08-16T23:59:30.363Z,14.71
